Rock Creek, Ohio
Current Conditions -  °F | °C
As of 1:18 PM on Thursday 29 Jan 2015 (Local Time) from KHZY Reporting Station
Light Snow Light Snow  
Wind Chill: 21°   Ceiling: 3400
Heat Index: 31°   Visibility: 9mi
Dew Point: 28°   Wind: 13mph
Humidity: 89%   Direction: 170°S
Pressure: 29.77"   Gusts: NA
Location:  41.66°N, 80.86°W
Report Text: KHZY 291818Z AUTO 17011KT 9SM -SN FEW009 OVC034 M01/M02 A2977 RMK AO2 P0000 T10061022
Loading
Personal Weather Stations






























Interactive Weather Map New forecast layout! Learn more

10-Day Weather Forecast

Advertisements
Track Severe Weather on mobile